createdAt,value
2022-12-23T00:07:28.019Z,8.10
2022-12-23T00:17:29.666Z,8.53
2022-12-23T00:27:37.189Z,6.37
2022-12-23T00:37:39.247Z,6.50
2022-12-23T00:47:59.581Z,5.87
2022-12-23T00:58:01.262Z,6.73
2022-12-23T01:08:07.832Z,6.63
2022-12-23T01:18:09.472Z,5.77
2022-12-23T01:28:11.089Z,5.23
2022-12-23T01:38:13.148Z,7.57
2022-12-23T01:48:18.026Z,3.33
2022-12-23T01:58:26.610Z,7.40
2022-12-23T02:08:48.341Z,3.97
2022-12-23T02:19:09.915Z,5.37
2022-12-23T02:30:05.925Z,8.70
2022-12-23T02:40:14.493Z,7.40
2022-12-23T02:50:25.994Z,6.37
2022-12-23T03:00:28.384Z,5.90
2022-12-23T03:10:41.820Z,6.43
2022-12-23T03:21:09.079Z,4.70
2022-12-23T03:31:17.083Z,2.70
2022-12-23T03:41:31.419Z,1.80
2022-12-23T03:51:39.167Z,2.57
2022-12-23T04:01:52.533Z,2.03
2022-12-23T04:11:54.842Z,3.77
2022-12-23T04:21:57.735Z,5.90
2022-12-23T04:31:59.917Z,8.37
2022-12-23T04:42:01.601Z,6.50
2022-12-23T04:52:03.320Z,6.80
2022-12-23T05:02:05.125Z,3.47
2022-12-23T05:12:06.956Z,4.63
2022-12-23T05:22:08.599Z,4.03
2022-12-23T05:32:10.335Z,5.83
2022-12-23T05:42:12.515Z,4.70
2022-12-23T05:52:14.625Z,1.70
2022-12-23T06:02:16.523Z,1.60
2022-12-23T06:12:18.234Z,2.13
2022-12-23T06:22:21.749Z,1.77
2022-12-23T06:32:23.402Z,1.10
2022-12-23T06:42:25.028Z,4.83
2022-12-23T06:52:26.657Z,2.17
2022-12-23T07:02:28.416Z,1.63
2022-12-23T07:12:30.570Z,5.53
2022-12-23T07:22:32.206Z,3.80
2022-12-23T07:32:33.853Z,1.97
2022-12-23T07:42:50.930Z,1.10
2022-12-23T07:52:53.851Z,2.30
2022-12-23T08:02:55.541Z,3.67
2022-12-23T08:13:00.643Z,3.83
2022-12-23T08:23:02.291Z,3.17
2022-12-23T08:33:04.395Z,6.07
2022-12-23T08:43:06.059Z,4.73
2022-12-23T08:53:08.342Z,10.03
2022-12-23T09:03:10.163Z,6.47
2022-12-23T09:13:17.898Z,4.20
2022-12-23T09:23:24.121Z,4.30
2022-12-23T09:33:26.029Z,6.07
2022-12-23T09:43:45.430Z,12.17
2022-12-23T09:54:16.532Z,6.10
2022-12-23T10:04:21.998Z,7.17
2022-12-23T10:14:29.709Z,9.13
2022-12-23T10:24:42.710Z,7.80
2022-12-23T10:34:50.288Z,10.97
2022-12-23T10:45:01.781Z,7.80
2022-12-23T10:55:05.328Z,7.47
2022-12-23T11:05:28.567Z,10.80
2022-12-23T11:15:36.631Z,8.47
2022-12-23T11:25:43.735Z,8.03
2022-12-23T11:35:45.488Z,7.43
2022-12-23T11:45:47.321Z,12.40
2022-12-23T11:56:08.899Z,7.07
2022-12-23T12:06:14.913Z,9.73
2022-12-23T12:16:44.839Z,6.27
2022-12-23T12:26:51.239Z,9.33
2022-12-23T12:37:10.417Z,7.47
2022-12-23T12:57:46.512Z,3.43
2022-12-23T13:08:25.472Z,4.17
2022-12-23T13:18:52.807Z,6.93
2022-12-23T13:37:12.388Z,4.57
2022-12-23T13:47:30.475Z,4.63
2022-12-23T13:57:58.479Z,3.13
2022-12-23T14:08:06.889Z,3.67
2022-12-23T14:18:25.490Z,4.43
2022-12-23T14:29:12.757Z,4.80
2022-12-23T14:39:14.330Z,6.97
2022-12-23T14:49:39.937Z,10.00
2022-12-23T14:59:51.309Z,7.00
2022-12-23T15:10:00.734Z,6.07
2022-12-23T15:20:18.618Z,6.33
2022-12-23T15:30:21.711Z,6.50
2022-12-23T15:40:33.227Z,8.00
2022-12-23T15:50:42.021Z,8.90
2022-12-23T16:00:53.497Z,7.90
2022-12-23T16:11:04.192Z,5.47
2022-12-23T16:21:12.933Z,2.40
2022-12-23T16:31:17.467Z,2.27
2022-12-23T16:41:19.975Z,2.70
2022-12-23T16:51:23.313Z,1.70
2022-12-23T17:01:31.644Z,3.07
2022-12-23T17:11:43.409Z,2.23
2022-12-23T17:21:46.564Z,1.23
2022-12-23T17:31:49.705Z,1.20
2022-12-23T17:41:51.573Z,2.20
2022-12-23T17:51:53.272Z,2.20
2022-12-23T18:01:55.102Z,1.10
2022-12-23T18:11:56.847Z,1.30
2022-12-23T18:21:58.762Z,1.10
2022-12-23T18:32:00.902Z,3.03
2022-12-23T18:42:02.586Z,1.77
2022-12-23T18:52:12.391Z,0.80
2022-12-23T19:02:15.253Z,1.90
2022-12-23T19:18:21.959Z,0.97
2022-12-23T19:28:23.977Z,1.10
2022-12-23T19:38:26.110Z,1.23
2022-12-23T19:48:29.164Z,2.00
2022-12-23T19:58:36.435Z,2.80
2022-12-23T20:08:38.303Z,2.30
2022-12-23T20:18:39.997Z,1.77
2022-12-23T20:28:42.278Z,3.40
2022-12-23T20:38:45.511Z,2.83
2022-12-23T20:48:47.707Z,4.93
2022-12-23T20:58:55.396Z,4.77
2022-12-23T21:08:59.659Z,3.53
2022-12-23T21:19:01.804Z,4.33
2022-12-23T21:29:06.014Z,2.20
2022-12-23T21:39:10.450Z,7.23
2022-12-23T21:49:12.242Z,6.23
2022-12-23T21:59:15.102Z,6.10
2022-12-23T22:09:18.953Z,8.30
2022-12-23T22:19:20.623Z,10.67
2022-12-23T22:29:22.278Z,8.27
2022-12-23T22:39:23.991Z,6.70
2022-12-23T22:49:25.695Z,9.33
2022-12-23T22:59:27.995Z,6.17
2022-12-23T23:09:29.632Z,5.10
2022-12-23T23:19:31.690Z,5.07
2022-12-23T23:29:33.911Z,7.23
2022-12-23T23:39:35.585Z,4.57
2022-12-23T23:49:37.250Z,6.53
2022-12-23T23:59:39.129Z,7.50
